Time;durP1;ratioP1;P1;durP2;ratioP2;P2;SDS_P1;SDS_P2;PMS_P1;PMS_P2;Temp;Humidity;BMP_temperature;BMP_pressure;BME280_temperature;BME280_humidity;BME280_pressure;Samples;Min_cycle;Max_cycle;Signal;HPM_P1;HPM_P2
2022/01/22 00:01:05;;;;;;;0.10;0.10;;;3.80;99.90;;;3.50;100.00;101546.63;4914287;29;20211;-80
2022/01/22 00:03:34;;;;;;;0.20;0.20;;;3.80;99.90;;;3.49;100.00;101552.66;4896029;29;20222;-80
2022/01/22 00:06:02;;;;;;;0.20;0.20;;;3.80;99.90;;;3.51;100.00;101557.97;4914331;29;20232;-80
2022/01/22 00:08:30;;;;;;;0.20;0.20;;;3.70;99.90;;;3.55;100.00;101565.19;4900636;29;20576;-80
2022/01/22 00:10:58;;;;;;;0.20;0.20;;;3.70;99.90;;;3.53;100.00;101561.59;4915942;29;20214;-79
2022/01/22 00:16:20;;;;;;;0.20;0.20;;;3.70;99.90;;;3.54;100.00;101558.16;4928991;29;20242;-80
2022/01/22 00:18:48;;;;;;;0.20;0.20;;;3.70;99.90;;;3.57;100.00;101555.69;4887836;29;20238;-80
2022/01/22 00:21:16;;;;;;;0.20;0.20;;;3.70;99.90;;;3.59;100.00;101550.56;4917760;29;20222;-80
2022/01/22 00:23:54;;;;;;;0.20;0.20;;;3.70;99.90;;;3.57;100.00;101552.19;4925901;29;20218;-80
2022/01/22 00:26:23;;;;;;;0.10;0.10;;;3.70;99.90;;;3.59;100.00;101547.94;4902389;29;20230;-80
2022/01/22 00:28:50;;;;;;;0.10;0.10;;;3.80;99.90;;;3.57;100.00;101544.34;4889252;29;20211;-80
2022/01/22 00:31:19;;;;;;;0.20;0.20;;;3.70;99.90;;;3.57;100.00;101544.34;4914463;29;20215;-80
2022/01/22 00:33:47;;;;;;;0.20;0.20;;;3.80;99.90;;;3.56;100.00;101538.22;4893073;29;20584;-80
2022/01/22 00:36:15;;;;;;;0.10;0.10;;;3.80;99.90;;;3.51;100.00;101534.44;4918806;29;20238;-80
2022/01/22 00:38:43;;;;;;;0.20;0.20;;;3.70;99.90;;;3.51;100.00;101531.81;4905204;29;20213;-80
2022/01/22 00:41:11;;;;;;;0.20;0.20;;;3.80;99.90;;;3.48;100.00;101527.34;4886304;29;20219;-80
2022/01/22 00:43:39;;;;;;;0.20;0.20;;;3.70;99.90;;;3.56;100.00;101538.22;4906069;29;20211;-80
2022/01/22 00:46:07;;;;;;;0.20;0.20;;;3.70;99.90;;;3.50;100.00;101524.81;4914204;29;20234;-80
2022/01/22 00:48:34;;;;;;;0.20;0.20;;;3.80;99.90;;;3.49;100.00;101530.84;4907317;29;20226;-80
2022/01/22 00:51:02;;;;;;;0.20;0.20;;;3.80;99.90;;;3.42;100.00;101519.16;4923182;29;20215;-80
2022/01/22 00:53:32;;;;;;;0.20;0.20;;;3.70;99.90;;;3.39;100.00;101511.13;4926361;29;20666;-80
2022/01/22 00:56:00;;;;;;;0.30;0.30;;;3.70;99.90;;;3.39;100.00;101529.44;4897995;29;20234;-79
2022/01/22 00:58:28;;;;;;;0.30;0.30;;;3.70;99.90;;;3.32;100.00;101523.78;4902826;29;20223;-80
2022/01/22 01:00:56;;;;;;;0.20;0.20;;;3.70;99.90;;;3.23;100.00;101508.50;4915588;29;20211;-80
2022/01/22 01:03:24;;;;;;;0.20;0.20;;;3.80;99.90;;;3.31;100.00;101537.69;4890261;29;20215;-80
2022/01/22 01:05:52;;;;;;;0.20;0.20;;;3.60;99.90;;;3.19;100.00;101528.34;4917917;29;20253;-80
2022/01/22 01:08:20;;;;;;;0.30;0.30;;;3.60;99.90;;;3.20;100.00;101526.63;4897454;29;20218;-80
2022/01/22 01:10:49;;;;;;;0.20;0.20;;;3.60;99.90;;;3.17;100.00;101531.69;4906164;29;20214;-80
2022/01/22 01:13:17;;;;;;;0.30;0.30;;;3.50;99.90;;;3.11;100.00;101524.38;4900336;29;20211;-80
2022/01/22 01:16:13;;;;;;;0.20;0.20;;;3.70;99.90;;;3.11;100.00;101536.56;4880120;29;20227;-80
2022/01/22 01:35:11;;;;;;;0.20;0.20;;;3.50;99.90;;;3.13;100.00;101546.28;4894438;29;20238;-80
2022/01/22 01:37:39;;;;;;;0.30;0.30;;;3.60;99.90;;;3.27;100.00;101567.97;4910320;29;20215;-81
2022/01/22 01:40:09;;;;;;;0.28;0.28;;;3.50;99.90;;;3.21;100.00;101562.41;4925459;29;20218;-81
2022/01/22 01:42:48;;;;;;;0.20;0.20;;;3.50;99.90;;;3.22;100.00;101558.97;4931976;29;20736;-81
2022/01/22 01:45:16;;;;;;;0.25;0.25;;;3.50;99.90;;;3.30;100.00;101569.88;4924841;29;20319;-81
2022/01/22 01:47:53;;;;;;;0.20;0.20;;;3.60;99.90;;;3.25;100.00;101555.63;4907107;29;20595;-81
2022/01/22 01:50:21;;;;;;;0.30;0.30;;;3.50;99.90;;;3.19;100.00;101558.81;4894205;29;20215;-81
2022/01/22 01:58:20;;;;;;;0.30;0.30;;;3.70;99.90;;;3.74;100.00;101585.41;4900871;29;20198;-81
2022/01/22 02:00:50;;;;;;;0.20;0.20;;;3.70;99.90;;;3.68;100.00;101572.88;4895354;29;20206;-81
2022/01/22 02:03:21;;;;;;;0.30;0.30;;;3.70;99.90;;;3.82;100.00;101586.72;4932460;29;20211;-81
2022/01/22 02:05:57;;;;;;;0.30;0.30;;;3.80;99.90;;;4.00;100.00;101595.59;4886753;29;20742;-81
2022/01/22 02:08:28;;;;;;;0.20;0.20;;;3.80;99.90;;;3.93;100.00;101571.63;4913362;29;20210;-81
2022/01/22 02:11:02;;;;;;;0.30;0.30;;;3.90;99.90;;;3.88;100.00;101558.25;4916532;29;20206;-81
2022/01/22 02:25:32;;;;;;;0.30;0.30;;;4.00;99.90;;;3.87;100.00;101522.44;4907920;29;20236;-81
2022/01/22 02:28:02;;;;;;;0.25;0.25;;;4.00;99.90;;;3.93;100.00;101520.19;4913066;29;20230;-81
2022/01/22 02:30:39;;;;;;;0.20;0.20;;;4.00;99.90;;;3.95;100.00;101517.66;4885429;29;20242;-80
2022/01/22 02:33:38;;;;;;;0.20;0.20;;;4.00;99.90;;;3.99;100.00;101507.41;4898666;29;20209;-81
2022/01/22 02:39:05;;;;;;;0.20;0.20;;;4.10;99.90;;;4.00;100.00;101510.94;4911199;29;20210;-80
2022/01/22 02:41:35;;;;;;;0.20;0.20;;;4.10;99.90;;;4.00;100.00;101501.38;4897052;29;20215;-81
2022/01/22 02:44:04;;;;;;;0.20;0.20;;;4.00;99.90;;;4.00;100.00;101495.25;4913001;29;20217;-81
2022/01/22 02:46:33;;;;;;;0.20;0.20;;;4.00;99.90;;;3.97;100.00;101492.47;4910036;29;20233;-81
2022/01/22 02:49:03;;;;;;;0.20;0.20;;;4.10;99.90;;;3.93;100.00;101494.00;4891520;29;20248;-80
2022/01/22 02:51:31;;;;;;;0.38;0.38;;;4.10;99.90;;;3.93;100.00;101501.88;4910761;29;20211;-81
2022/01/22 02:54:02;;;;;;;0.20;0.20;;;4.00;99.90;;;3.90;100.00;101491.25;4908727;29;20218;-81
2022/01/22 02:56:31;;;;;;;0.20;0.20;;;4.00;99.90;;;3.91;100.00;101484.28;4905016;29;20249;-81
2022/01/22 02:59:00;;;;;;;0.20;0.20;;;4.00;99.90;;;3.94;100.00;101498.44;4940918;29;20204;-81
2022/01/22 03:01:28;;;;;;;0.10;0.10;;;4.00;99.90;;;3.86;100.00;101486.63;4894726;29;20205;-81
2022/01/22 03:03:56;;;;;;;0.20;0.20;;;4.10;99.90;;;3.82;100.00;101485.56;4886601;29;20594;-81
2022/01/22 03:06:24;;;;;;;0.20;0.20;;;4.00;99.90;;;3.87;100.00;101504.13;4890560;29;20736;-80
2022/01/22 03:08:52;;;;;;;0.10;0.10;;;4.00;99.90;;;3.92;100.00;101499.16;4909009;29;20238;-81
2022/01/22 03:11:25;;;;;;;0.20;0.20;;;4.00;99.90;;;3.82;100.00;101496.03;4896459;29;20583;-80
2022/01/22 03:16:35;;;;;;;0.20;0.20;;;4.00;99.90;;;3.82;100.00;101503.88;4900662;29;20231;-80
2022/01/22 03:19:14;;;;;;;0.10;0.10;;;4.00;99.90;;;3.89;100.00;101523.44;4882099;29;20210;-81
2022/01/22 03:21:57;;;;;;;0.10;0.10;;;4.00;99.90;;;3.94;100.00;101511.50;4916393;29;20235;-80
2022/01/22 03:27:24;;;;;;;0.20;0.20;;;4.00;99.90;;;3.82;100.00;101514.34;4913112;29;20222;-81
2022/01/22 03:29:52;;;;;;;0.20;0.20;;;4.00;99.90;;;3.89;100.00;101520.81;4894982;29;20219;-80
2022/01/22 03:32:20;;;;;;;0.20;0.20;;;4.00;99.90;;;3.98;100.00;101517.81;4911272;29;20562;-80
2022/01/22 03:37:43;;;;;;;0.20;0.20;;;4.10;99.90;;;4.01;100.00;101513.63;4894635;29;20215;-81
2022/01/22 03:40:14;;;;;;;0.20;0.20;;;4.10;99.90;;;3.97;100.00;101503.81;4895914;29;20219;-81
2022/01/22 03:42:43;;;;;;;0.15;0.15;;;4.10;99.90;;;3.97;100.00;101509.06;4905384;29;20230;-81
2022/01/22 03:45:15;;;;;;;0.20;0.20;;;4.10;99.90;;;4.01;100.00;101517.97;4919733;29;20234;-80
2022/01/22 03:47:44;;;;;;;0.20;0.20;;;4.10;99.90;;;3.98;100.00;101508.25;4916909;29;20231;-82
2022/01/22 03:50:15;;;;;;;0.20;0.20;;;4.10;99.90;;;3.96;100.00;101509.88;4878547;29;20690;-81
2022/01/22 03:52:43;;;;;;;0.10;0.10;;;4.10;99.90;;;3.94;100.00;101502.75;4902778;29;20215;-80
2022/01/22 03:55:21;;;;;;;0.10;0.10;;;4.10;99.90;;;3.98;100.00;101516.09;4891623;29;20231;-80
2022/01/22 03:58:15;;;;;;;0.20;0.20;;;4.10;99.90;;;3.97;100.00;101511.69;4917735;29;20222;-80
2022/01/22 04:00:50;;;;;;;0.20;0.20;;;4.10;99.90;;;4.02;100.00;101525.00;4884240;29;20227;-81
2022/01/22 04:03:32;;;;;;;0.20;0.20;;;4.10;99.90;;;3.97;100.00;101516.00;4922767;29;20215;-80
2022/01/22 04:08:38;;;;;;;0.20;0.20;;;4.10;99.90;;;3.99;100.00;101519.59;4902072;29;20470;-80
2022/01/22 04:11:14;;;;;;;0.20;0.20;;;4.10;99.90;;;3.99;100.00;101524.84;4894029;29;20216;-80
2022/01/22 04:13:44;;;;;;;0.20;0.20;;;4.10;99.90;;;3.97;100.00;101514.28;4907791;29;20213;-80
2022/01/22 04:16:13;;;;;;;0.20;0.20;;;4.10;99.90;;;3.98;100.00;101513.47;4921511;29;20227;-80
2022/01/22 04:27:12;;;;;;;0.20;0.20;;;4.20;99.90;;;4.04;100.00;101505.94;4909773;29;20212;-80
2022/01/22 04:29:41;;;;;;;0.20;0.20;;;4.20;99.90;;;3.98;100.00;101495.16;4906616;29;20207;-80
2022/01/22 04:32:09;;;;;;;0.10;0.10;;;4.20;99.90;;;3.98;100.00;101495.16;4918995;29;20215;-80
2022/01/22 04:34:37;;;;;;;0.20;0.20;;;4.20;99.90;;;3.98;100.00;101489.03;4885081;29;20212;-80
2022/01/22 04:37:05;;;;;;;0.10;0.10;;;4.10;99.90;;;4.02;100.00;101498.84;4905036;29;20212;-80
2022/01/22 04:39:33;;;;;;;0.20;0.20;;;4.10;99.90;;;3.99;100.00;101490.81;4898417;29;20218;-81
2022/01/22 04:42:02;;;;;;;0.20;0.20;;;4.10;99.90;;;3.96;100.00;101480.19;4909931;29;20219;-81
2022/01/22 04:44:37;;;;;;;0.20;0.20;;;4.10;99.90;;;4.04;100.00;101489.34;4886770;29;20211;-81
2022/01/22 04:52:42;;;;;;;0.20;0.20;;;4.20;99.90;;;4.02;100.00;101475.28;4894202;29;20214;-81
2022/01/22 04:55:11;;;;;;;0.20;0.20;;;4.20;99.90;;;4.02;100.00;101475.28;4884845;29;20227;-80
2022/01/22 04:57:45;;;;;;;0.13;0.13;;;4.20;99.90;;;3.99;100.00;101467.25;4895298;29;20219;-81
2022/01/22 05:00:17;;;;;;;0.13;0.13;;;4.30;99.90;;;3.97;100.00;101458.44;4901672;29;20210;-81
2022/01/22 05:03:05;;;;;;;0.47;0.47;;;4.20;99.90;;;3.84;100.00;101451.63;4928793;29;20206;-80
2022/01/22 05:05:45;;;;;;;0.20;0.20;;;4.20;99.90;;;3.92;100.00;101471.28;4910183;23;20227;-80
2022/01/22 05:08:28;;;;;;;0.17;0.17;;;4.20;99.90;;;3.92;100.00;101476.50;4885715;29;20234;-80
2022/01/22 05:11:25;;;;;;;0.20;0.20;;;4.10;99.90;;;3.90;100.00;101478.16;4891236;29;20219;-80
2022/01/22 05:13:58;;;;;;;0.20;0.20;;;4.10;99.90;;;4.09;100.00;101504.47;4918233;29;20665;-81
2022/01/22 05:16:27;;;;;;;0.10;0.10;;;4.10;99.90;;;4.07;100.00;101481.66;4899064;29;20231;-81
2022/01/22 05:19:06;;;;;;;0.13;0.13;;;4.20;99.90;;;3.94;100.00;101469.63;4910691;29;20231;-81
2022/01/22 05:21:38;;;;;;;0.20;0.20;;;4.20;99.90;;;3.90;100.00;101474.59;4906206;29;20222;-81
2022/01/22 05:24:12;;;;;;;0.20;0.20;;;4.10;99.90;;;3.90;100.00;101472.00;4898870;29;20220;-81
2022/01/22 05:26:58;;;;;;;0.20;0.20;;;4.20;99.90;;;3.80;100.00;101466.28;4885724;29;20231;-81
2022/01/22 05:32:31;;;;;;;0.20;0.20;;;4.10;99.90;;;3.84;100.00;101486.53;4908874;29;20212;-81
2022/01/22 05:38:19;;;;;;;0.15;0.15;;;4.10;99.90;;;3.83;100.00;101484.75;4913837;29;20223;-81
2022/01/22 05:40:47;;;;;;;0.10;0.10;;;4.10;99.90;;;3.80;100.00;101499.38;4927717;29;20231;-81
2022/01/22 05:43:18;;;;;;;0.20;0.20;;;4.00;99.90;;;3.83;100.00;101500.44;4892990;29;20211;-81
2022/01/22 05:45:50;;;;;;;0.10;0.10;;;4.10;99.90;;;3.85;100.00;101501.44;4892237;29;20263;-81
2022/01/22 05:48:19;;;;;;;0.20;0.20;;;4.10;99.90;;;3.90;100.00;101508.63;4910495;29;20239;-81
2022/01/22 05:50:51;;;;;;;0.20;0.20;;;4.10;99.90;;;3.83;100.00;101489.09;4910014;29;20227;-81
2022/01/22 06:01:25;;;;;;;0.10;0.10;;;4.10;99.90;;;3.79;100.00;101508.06;4908865;29;20211;-81
2022/01/22 06:04:09;;;;;;;0.20;0.20;;;4.10;99.90;;;3.79;100.00;101516.81;4900707;29;20214;-80
2022/01/22 06:06:38;;;;;;;0.20;0.20;;;4.10;99.90;;;3.72;100.00;101513.78;4916528;29;20242;-81
2022/01/22 06:09:10;;;;;;;0.20;0.20;;;4.10;99.90;;;3.76;100.00;101531.44;4898014;29;20223;-83
2022/01/22 06:12:04;;;;;;;0.20;0.20;;;4.10;99.90;;;3.74;100.00;101531.34;4900567;29;20211;-82
2022/01/22 06:14:46;;;;;;;0.30;0.30;;;4.00;99.90;;;3.83;100.00;101546.66;4891404;29;20216;-82
2022/01/22 06:17:19;;;;;;;0.20;0.20;;;4.00;99.90;;;3.76;100.00;101547.13;4914807;29;20242;-80
2022/01/22 06:20:07;;;;;;;0.10;0.10;;;4.00;99.90;;;3.68;100.00;101554.56;4903237;29;20214;-80
2022/01/22 06:22:36;;;;;;;0.10;0.10;;;4.00;99.90;;;3.67;100.00;101554.50;4897810;29;20208;-80
2022/01/22 06:25:05;;;;;;;0.10;0.10;;;4.00;99.90;;;3.76;100.00;101557.59;4896907;29;20200;-80
2022/01/22 06:27:33;;;;;;;0.20;0.20;;;4.00;99.90;;;3.77;100.00;101562.03;4899968;29;20203;-80
2022/01/22 06:30:01;;;;;;;0.10;0.10;;;4.10;99.90;;;3.77;100.00;101568.16;4893808;29;20231;-80
2022/01/22 06:32:35;;;;;;;0.20;0.20;;;4.10;99.90;;;3.76;100.00;101560.22;4915369;29;20215;-80
2022/01/22 06:35:07;;;;;;;0.13;0.13;;;4.00;99.90;;;3.91;100.00;101581.13;4901724;29;20207;-80
2022/01/22 06:37:37;;;;;;;0.20;0.20;;;4.00;99.90;;;3.93;100.00;101582.09;4897911;29;20239;-80
2022/01/22 06:43:28;;;;;;;0.20;0.20;;;4.10;99.90;;;3.92;100.00;101565.50;4903910;29;20315;-81
2022/01/22 06:46:20;;;;;;;0.10;0.10;;;4.10;99.90;;;3.97;100.00;101569.25;4916222;29;20230;-83
2022/01/22 06:49:05;;;;;;;0.10;0.10;;;4.10;99.90;;;3.98;100.00;101571.06;4915516;29;20222;-81
2022/01/22 06:51:49;;;;;;;0.20;0.20;;;4.10;99.90;;;4.00;100.00;101565.91;4900522;29;20210;-81
2022/01/22 06:54:20;;;;;;;0.17;0.17;;;4.10;99.90;;;3.99;100.00;101567.63;4902726;29;20199;-81
2022/01/22 06:56:48;;;;;;;0.10;0.10;;;4.10;99.90;;;3.96;100.00;101566.56;4916147;29;20698;-82
2022/01/22 06:59:17;;;;;;;0.10;0.10;;;4.10;99.90;;;3.98;100.00;101560.59;4916141;29;20207;-81
2022/01/22 07:01:48;;;;;;;0.20;0.20;;;4.10;99.90;;;3.92;100.00;101562.88;4886246;29;20662;-82
2022/01/22 07:04:22;;;;;;;0.20;0.20;;;4.10;99.90;;;3.90;100.00;101568.81;4870350;29;20211;-82
2022/01/22 07:07:00;;;;;;;0.20;0.20;;;4.10;99.90;;;3.89;100.00;101567.91;4898280;29;20238;-82
2022/01/22 07:09:31;;;;;;;0.20;0.20;;;4.10;99.90;;;3.92;100.00;101568.13;4926622;29;20232;-82
2022/01/22 07:12:00;;;;;;;0.20;0.20;;;4.10;99.90;;;3.94;100.00;101570.81;4900888;29;20219;-82
2022/01/22 07:14:29;;;;;;;0.10;0.10;;;4.10;99.90;;;3.96;100.00;101577.94;4907675;29;20219;-82
2022/01/22 07:16:58;;;;;;;0.20;0.20;;;4.10;99.90;;;3.90;100.00;101569.75;4881082;29;20234;-82
2022/01/22 07:19:40;;;;;;;0.20;0.20;;;4.10;99.90;;;3.91;100.00;101586.34;4906414;29;20217;-81
2022/01/22 07:25:12;;;;;;;0.15;0.15;;;4.10;99.90;;;3.89;100.00;101573.16;4905241;29;20223;-82
2022/01/22 07:27:44;;;;;;;0.20;0.20;;;4.10;99.90;;;3.97;100.00;101584.97;4897664;29;20223;-82
2022/01/22 07:30:13;;;;;;;0.10;0.10;;;4.10;99.90;;;3.90;100.00;101585.44;4900869;29;20234;-82
2022/01/22 07:32:44;;;;;;;0.10;0.10;;;4.10;99.90;;;3.86;100.00;101576.50;4867891;29;20212;-81
2022/01/22 07:35:17;;;;;;;0.20;0.20;;;4.10;99.90;;;3.91;100.00;101594.19;4884607;29;20203;-82
2022/01/22 07:37:49;;;;;;;0.20;0.20;;;4.10;99.90;;;3.89;100.00;101583.63;4904016;29;20213;-82
2022/01/22 07:40:21;;;;;;;0.20;0.20;;;4.10;99.90;;;3.89;100.00;101591.47;4904517;29;20207;-82
2022/01/22 07:43:02;;;;;;;0.17;0.17;;;4.10;99.90;;;3.89;100.00;101595.81;4905334;29;20214;-82
2022/01/22 07:45:48;;;;;;;0.20;0.20;;;4.10;99.90;;;3.91;100.00;101600.34;4921989;29;20242;-82
2022/01/22 07:48:23;;;;;;;0.20;0.20;;;4.10;99.90;;;3.97;100.00;101602.38;4885881;29;20292;-82
2022/01/22 07:51:09;;;;;;;0.20;0.20;;;4.10;99.90;;;4.04;100.00;101607.13;4916121;29;20236;-82
2022/01/22 07:53:37;;;;;;;0.15;0.15;;;4.10;99.90;;;4.03;100.00;101616.69;4913855;29;20203;-83
2022/01/22 07:56:11;;;;;;;0.17;0.17;;;4.10;99.90;;;4.07;100.00;101610.81;4903142;29;20238;-83
2022/01/22 07:58:40;;;;;;;0.20;0.20;;;4.20;99.90;;;4.01;100.00;101586.94;4919661;29;20215;-83
2022/01/22 08:01:09;;;;;;;0.10;0.10;;;4.20;99.90;;;4.01;100.00;101597.41;4886128;29;20211;-82
2022/01/22 08:03:57;;;;;;;0.10;0.10;;;4.20;99.90;;;3.98;100.00;101592.00;4917601;29;20215;-82
2022/01/22 08:06:43;;;;;;;0.13;0.13;;;4.20;99.90;;;3.95;100.00;101594.44;4901895;29;20239;-82
2022/01/22 08:09:40;;;;;;;0.20;0.20;;;4.20;99.90;;;4.01;100.00;101613.09;4900938;29;20227;-83
2022/01/22 08:12:19;;;;;;;0.10;0.10;;;4.20;99.90;;;4.05;100.00;101608.94;4903465;29;20203;-83
2022/01/22 08:14:49;;;;;;;0.10;0.10;;;4.20;99.90;;;4.17;100.00;101634.06;4887122;29;20207;-82
2022/01/22 08:17:19;;;;;;;0.10;0.10;;;4.20;99.90;;;4.29;100.00;101641.66;4904116;29;20234;-82
2022/01/22 08:19:47;;;;;;;0.10;0.10;;;4.30;99.90;;;4.33;100.00;101638.38;4906416;29;20206;-83
2022/01/22 08:22:46;;;;;;;0.10;0.10;;;4.30;99.90;;;4.30;100.00;101630.38;4875147;29;20221;-83
2022/01/22 08:25:33;;;;;;;0.10;0.10;;;4.40;99.90;;;4.38;100.00;101628.16;4908528;29;20231;-83
2022/01/22 08:31:16;;;;;;;0.20;0.20;;;4.60;99.90;;;4.44;100.00;101632.00;4906806;29;20227;-83
2022/01/22 08:36:30;;;;;;;0.20;0.20;;;4.60;99.90;;;4.58;100.00;101635.34;4919849;29;20233;-83
2022/01/22 08:39:01;;;;;;;0.10;0.10;;;4.70;99.90;;;4.61;100.00;101638.13;4885712;29;20216;-83
2022/01/22 08:41:31;;;;;;;0.10;0.10;;;4.70;99.90;;;4.67;100.00;101629.69;4884471;29;20208;-83
2022/01/22 08:44:02;;;;;;;0.20;0.20;;;4.70;99.90;;;4.71;100.00;101619.44;4918943;29;20219;-83
2022/01/22 08:46:31;;;;;;;0.13;0.13;;;4.80;99.90;;;4.69;100.00;101617.56;4919792;29;20242;-83
2022/01/22 08:49:00;;;;;;;0.20;0.20;;;4.80;99.90;;;4.73;100.00;101612.53;4904116;29;20219;-83
2022/01/22 08:51:32;;;;;;;0.10;0.10;;;4.80;99.90;;;4.78;100.00;101626.78;4904340;29;20328;-83
2022/01/22 08:54:01;;;;;;;0.10;0.10;;;4.90;99.90;;;4.85;100.00;101633.25;4888472;29;20211;-83
2022/01/22 08:56:33;;;;;;;0.10;0.10;;;4.90;99.90;;;4.91;100.00;101646.66;4880606;29;20239;-83
2022/01/22 08:59:01;;;;;;;0.10;0.10;;;5.00;99.90;;;5.02;100.00;101649.81;4918918;29;20214;-83
2022/01/22 09:01:32;;;;;;;0.10;0.10;;;5.00;99.90;;;5.02;100.00;101645.47;4919136;29;20211;-83
2022/01/22 09:04:11;;;;;;;0.13;0.13;;;5.10;99.90;;;5.11;100.00;101664.28;4904631;29;20207;-83
2022/01/22 09:07:00;;;;;;;0.10;0.10;;;5.10;99.90;;;5.21;100.00;101662.16;4905525;29;20262;-83
2022/01/22 09:09:48;;;;;;;0.10;0.10;;;5.20;99.90;;;5.24;100.00;101657.06;4901409;29;20223;-83
2022/01/22 09:12:22;;;;;;;0.10;0.10;;;5.30;99.90;;;5.27;100.00;101652.88;4888259;29;20207;-83
2022/01/22 09:14:55;;;;;;;0.20;0.20;;;5.30;99.90;;;5.31;100.00;101648.69;4914675;29;20227;-83
2022/01/22 09:17:23;;;;;;;0.20;0.20;;;5.30;99.90;;;5.31;100.00;101638.19;4902487;29;20447;-82
2022/01/22 09:19:58;;;;;;;0.15;0.15;;;5.40;99.90;;;5.38;100.00;101650.78;4892661;29;20211;-82
2022/01/22 09:22:26;;;;;;;0.10;0.10;;;5.40;99.90;;;5.43;100.00;101654.53;4919463;29;20212;-83
2022/01/22 09:24:55;;;;;;;0.20;0.20;;;5.50;99.90;;;5.47;100.00;101657.38;4902814;29;20215;-83
2022/01/22 09:27:23;;;;;;;0.10;0.10;;;5.50;99.90;;;5.45;100.00;101651.16;4902032;29;20215;-82
2022/01/22 09:29:52;;;;;;;0.10;0.10;;;5.60;99.90;;;5.45;100.00;101653.78;4916636;29;20211;-81
2022/01/22 09:32:20;;;;;;;0.10;0.10;;;5.60;99.90;;;5.46;100.00;101658.22;4903218;29;20211;-81
2022/01/22 09:35:01;;;;;;;0.10;0.10;;;5.60;99.90;;;5.47;100.00;101651.25;4904531;29;20199;-81
2022/01/22 09:37:51;;;;;;;0.47;0.47;;;5.60;99.90;;;5.50;100.00;101664.50;4927199;29;20211;-81
2022/01/22 09:40:45;;;;;;;0.10;0.10;;;5.60;99.90;;;5.47;100.00;101672.22;4905320;29;20214;-81
2022/01/22 09:43:29;;;;;;;0.20;0.20;;;5.70;99.90;;;5.50;100.00;101671.47;4916315;29;20215;-81
2022/01/22 09:46:16;;;;;;;0.10;0.10;;;5.70;99.90;;;5.46;100.00;101665.19;4905348;29;20227;-82
2022/01/22 09:48:50;;;;;;;0.15;0.15;;;5.70;99.90;;;5.41;100.00;101658.81;4891413;29;20211;-83
2022/01/22 09:51:40;;;;;;;0.10;0.10;;;5.70;99.90;;;5.51;100.00;101682.06;4900741;29;20231;-82
2022/01/22 09:54:40;;;;;;;0.10;0.10;;;5.70;99.90;;;5.49;100.00;101683.69;4895491;29;20215;-83
2022/01/22 09:57:26;;;;;;;0.10;0.10;;;5.70;99.90;;;5.54;100.00;101695.31;4886774;29;20210;-82
2022/01/22 10:00:09;;;;;;;0.10;0.10;;;5.70;99.90;;;5.50;100.00;101688.13;4903987;29;20207;-83
2022/01/22 10:02:45;;;;;;;0.10;0.10;;;5.70;99.90;;;5.51;100.00;101686.41;4904366;29;20203;-84
2022/01/22 10:05:47;;;;;;;0.10;0.10;;;5.70;99.90;;;5.55;100.00;101690.97;4888930;29;20227;-84
2022/01/22 10:08:39;;;;;;;0.10;0.10;;;5.80;99.90;;;5.63;100.00;101708.00;4893695;29;20215;-84
2022/01/22 10:11:45;;;;;;;0.10;0.10;;;5.80;99.90;;;5.69;100.00;101709.19;4877548;29;20223;-84
2022/01/22 10:14:14;;;;;;;0.20;0.20;;;5.80;99.90;;;5.71;100.00;101711.88;4897996;29;20219;-83
2022/01/22 10:16:48;;;;;;;0.10;0.10;;;5.90;99.90;;;5.67;100.00;101702.06;4932348;29;20223;-82
2022/01/22 10:19:26;;;;;;;0.10;0.10;;;5.90;99.90;;;5.70;100.00;101699.59;4900881;29;20210;-82
2022/01/22 10:22:02;;;;;;;0.10;0.10;;;5.90;99.90;;;5.67;100.00;101688.94;4900059;29;20204;-81
2022/01/22 10:30:41;;;;;;;0.10;0.10;;;5.90;99.90;;;5.76;100.00;101692.00;4896796;29;20254;-82
2022/01/22 10:33:27;;;;;;;0.20;0.20;;;6.00;99.90;;;5.75;100.00;101691.13;4913720;29;20204;-82
2022/01/22 10:36:19;;;;;;;0.20;0.20;;;6.00;99.90;;;5.74;100.00;101676.19;4918943;29;20227;-82
2022/01/22 10:39:26;;;;;;;0.10;0.10;;;6.00;99.90;;;5.79;100.00;101684.28;4900161;29;20300;-82
2022/01/22 10:41:54;;;;;;;0.20;0.20;;;6.00;99.90;;;5.80;100.00;101683.47;4908250;29;20208;-82
2022/01/22 10:44:47;;;;;;;0.20;0.20;;;6.00;99.90;;;5.79;100.00;101681.66;4917343;29;20204;-83
2022/01/22 10:47:26;;;;;;;0.10;0.10;;;6.00;99.90;;;5.84;100.00;101677.53;4928131;29;20241;-82
2022/01/22 10:50:22;;;;;;;0.20;0.20;;;6.10;99.90;;;5.95;100.00;101694.72;4899685;29;20211;-83
2022/01/22 10:52:55;;;;;;;0.10;0.10;;;6.10;99.90;;;5.99;100.00;101701.94;4895525;29;20199;-83
2022/01/22 10:55:26;;;;;;;0.10;0.10;;;6.20;99.90;;;6.06;100.00;101708.38;4896505;29;20232;-82
2022/01/22 10:58:09;;;;;;;0.10;0.10;;;6.20;99.90;;;6.01;100.00;101689.78;4882332;29;20226;-83
2022/01/22 11:00:37;;;;;;;0.20;0.20;;;6.30;99.90;;;5.95;100.00;101665.84;4913520;29;20211;-82
2022/01/22 11:04:06;;;;;;;0.20;0.20;;;6.30;99.90;;;5.98;100.00;101673.88;4896872;29;20219;-83
2022/01/22 11:06:35;;;;;;;0.10;0.10;;;6.30;99.90;;;6.00;100.00;101674.84;4911442;29;20245;-83
2022/01/22 11:09:24;;;;;;;0.10;0.10;;;6.30;99.90;;;6.03;100.00;101680.25;4914607;29;20207;-83
2022/01/22 11:12:20;;;;;;;0.10;0.10;;;6.30;99.90;;;5.99;100.00;101670.41;4923438;29;20223;-83
2022/01/22 11:14:52;;;;;;;0.10;0.10;;;6.30;99.90;;;6.02;100.00;101672.28;4924484;29;20204;-82
2022/01/22 11:17:24;;;;;;;0.10;0.10;;;6.30;99.90;;;6.06;100.00;101682.09;4912365;29;20223;-82
2022/01/22 11:19:55;;;;;;;0.10;0.10;;;6.30;99.90;;;6.14;100.00;101690.34;4927972;29;20207;-81
2022/01/22 11:22:33;;;;;;;0.20;0.20;;;6.40;99.90;;;6.08;100.00;101680.47;4914485;29;20214;-83
2022/01/22 11:25:02;;;;;;;0.10;0.10;;;6.40;99.90;;;6.10;100.00;101684.94;4898690;29;20226;-82
2022/01/22 11:27:40;;;;;;;0.10;0.10;;;6.40;99.90;;;6.09;100.00;101682.25;4899385;29;20210;-83
2022/01/22 11:31:01;;;;;;;0.10;0.10;;;6.40;99.90;;;6.15;100.00;101687.78;4908808;29;20225;-83
2022/01/22 11:33:35;;;;;;;0.10;0.10;;;6.40;99.90;;;6.15;100.00;101684.25;4896979;29;20215;-83
2022/01/22 11:36:35;;;;;;;0.10;0.10;;;6.40;99.90;;;6.22;100.00;101696.84;4891456;29;20227;-83
2022/01/22 11:39:05;;;;;;;0.10;0.10;;;6.50;99.90;;;6.16;100.00;101689.59;4892487;29;20210;-83
2022/01/22 11:41:34;;;;;;;0.10;0.10;;;6.50;99.90;;;6.16;100.00;101684.34;4907560;29;20216;-83
2022/01/22 11:44:09;;;;;;;0.10;0.10;;;6.50;99.90;;;6.22;100.00;101694.22;4905920;29;20219;-82
2022/01/22 11:46:58;;;;;;;0.20;0.20;;;6.50;99.90;;;6.22;100.00;101699.47;4923543;29;20243;-83
2022/01/22 11:49:40;;;;;;;0.10;0.10;;;6.80;99.90;;;6.22;100.00;101689.88;4890451;29;20211;-83
2022/01/22 11:52:13;;;;;;;0.10;0.10;;;6.50;99.90;;;6.23;100.00;101690.78;4922231;29;20243;-83
2022/01/22 11:55:16;;;;;;;0.20;0.20;;;6.50;99.90;;;6.26;100.00;101690.91;4892192;29;20214;-83
2022/01/22 11:57:45;;;;;;;0.10;0.10;;;6.50;99.90;;;6.28;100.00;101699.78;4890386;29;20207;-83
2022/01/22 12:00:27;;;;;;;0.10;0.10;;;6.50;99.90;;;6.22;100.00;101696.84;4906587;29;20208;-83
2022/01/22 12:03:07;;;;;;;0.40;0.40;;;6.60;99.90;;;6.33;100.00;101707.03;4894503;29;20215;-84
2022/01/22 12:05:57;;;;;;;0.10;0.10;;;6.60;99.90;;;6.36;100.00;101704.53;4905232;29;20254;-81
2022/01/22 12:08:25;;;;;;;0.43;0.35;;;6.70;99.90;;;6.38;100.00;101694.09;4891577;29;20230;-82
2022/01/22 12:16:44;;;;;;;0.20;0.20;;;6.70;99.90;;;6.40;100.00;101671.44;4889228;29;20231;-82
2022/01/22 12:19:47;;;;;;;0.22;0.22;;;6.70;99.90;;;6.36;100.00;101662.50;4908165;29;20204;-80
2022/01/22 12:22:34;;;;;;;0.10;0.10;;;6.70;99.90;;;6.39;100.00;101654.75;4896708;29;20215;-79
2022/01/22 12:25:22;;;;;;;0.30;0.30;;;6.70;99.90;;;6.41;100.00;101661.00;4892915;29;20215;-80
2022/01/22 12:27:53;;;;;;;0.10;0.10;;;6.90;99.90;;;6.40;100.00;101663.53;4903598;29;20219;-79
2022/01/22 12:30:47;;;;;;;0.10;0.10;;;6.70;99.90;;;6.42;100.00;101669.78;4927326;29;20227;-79
2022/01/22 12:33:38;;;;;;;0.20;0.20;;;6.70;99.90;;;6.48;100.00;101684.91;4913128;29;20238;-79
2022/01/22 12:36:18;;;;;;;0.20;0.20;;;6.70;99.90;;;6.43;100.00;101672.47;4911969;29;20219;-79
2022/01/22 12:39:07;;;;;;;0.10;0.10;;;6.70;99.90;;;6.44;100.00;101660.22;4864666;29;20215;-79